Time;durP1;ratioP1;P1;durP2;ratioP2;P2;SDS_P1;SDS_P2;PMS_P1;PMS_P2;Temp;Humidity;BMP_temperature;BMP_pressure;BME280_temperature;BME280_humidity;BME280_pressure;Samples;Min_cycle;Max_cycle;Signal;HPM_P1;HPM_P2
2021/09/14 00:02:19;;;;;;;9.00;6.50;;;22.70;50.50;;;;;;5050142;28;20473;-86
2021/09/14 00:04:46;;;;;;;9.73;5.40;;;22.60;50.00;;;;;;5050442;28;20479;-86
2021/09/14 00:07:13;;;;;;;9.73;6.40;;;22.40;51.10;;;;;;5052233;28;20499;-86
2021/09/14 00:09:40;;;;;;;8.50;6.00;;;22.30;51.30;;;;;;5050671;28;20433;-86
2021/09/14 00:12:08;;;;;;;8.73;6.20;;;22.20;51.30;;;;;;5046987;28;20445;-86
2021/09/14 00:14:36;;;;;;;7.57;6.20;;;21.90;51.90;;;;;;5043553;28;20480;-86
2021/09/14 00:17:03;;;;;;;10.00;7.30;;;21.50;53.00;;;;;;5046079;28;20457;-86
2021/09/14 00:19:30;;;;;;;10.37;6.80;;;21.10;54.50;;;;;;5047184;28;20433;-86
2021/09/14 00:21:57;;;;;;;10.10;6.37;;;20.80;55.30;;;;;;5047758;28;20599;-86
2021/09/14 00:24:24;;;;;;;10.20;7.47;;;20.70;56.00;;;;;;5048963;28;20519;-87
2021/09/14 00:26:51;;;;;;;10.10;7.10;;;20.60;56.50;;;;;;5058328;28;20428;-86
2021/09/14 00:29:17;;;;;;;8.40;7.03;;;20.60;56.50;;;;;;5059376;28;20442;-86
2021/09/14 00:31:46;;;;;;;9.10;6.73;;;20.70;56.00;;;;;;5054705;28;20438;-86
2021/09/14 00:34:13;;;;;;;17.97;7.80;;;20.80;55.70;;;;;;5047485;28;20453;-86
2021/09/14 00:36:39;;;;;;;11.00;8.13;;;21.00;55.10;;;;;;5058472;28;20449;-85
2021/09/14 00:39:06;;;;;;;9.37;5.70;;;21.20;54.60;;;;;;5059111;28;20426;-85
2021/09/14 00:41:33;;;;;;;9.87;6.50;;;21.40;54.70;;;;;;5058844;28;20467;-85
2021/09/14 00:44:02;;;;;;;8.07;6.60;;;21.70;53.50;;;;;;5053860;28;20437;-86
2021/09/14 00:46:30;;;;;;;24.13;7.43;;;21.70;53.20;;;;;;5041893;28;20862;-86
2021/09/14 00:48:58;;;;;;;6.50;5.50;;;21.60;53.10;;;;;;5042332;28;20437;-87
2021/09/14 00:51:25;;;;;;;8.27;6.10;;;21.60;53.90;;;;;;5041645;28;20544;-87
2021/09/14 00:53:52;;;;;;;13.27;7.37;;;21.90;53.40;;;;;;5041405;28;20453;-86
2021/09/14 00:56:20;;;;;;;19.90;7.00;;;22.10;52.80;;;;;;5039771;28;20456;-86
2021/09/14 00:58:47;;;;;;;20.23;8.50;;;22.00;52.50;;;;;;5042217;28;20442;-87
2021/09/14 01:01:14;;;;;;;13.73;8.00;;;22.00;52.40;;;;;;5042238;28;20477;-87
2021/09/14 01:03:41;;;;;;;15.60;7.57;;;21.80;52.40;;;;;;5041322;28;20480;-87
2021/09/14 01:06:09;;;;;;;9.77;6.40;;;21.60;52.70;;;;;;5041500;28;20552;-87
2021/09/14 01:08:37;;;;;;;7.43;5.50;;;21.50;53.50;;;;;;5040040;28;20437;-86
2021/09/14 01:11:05;;;;;;;8.37;6.50;;;21.70;53.60;;;;;;5042029;28;20445;-86
2021/09/14 01:13:32;;;;;;;12.67;6.17;;;21.90;52.40;;;;;;5041917;28;20448;-87
2021/09/14 01:16:05;;;;;;;6.40;5.43;;;22.00;52.60;;;;;;5042593;28;20556;-86
2021/09/14 01:18:32;;;;;;;13.47;5.83;;;22.10;52.50;;;;;;5040972;28;20425;-87
2021/09/14 01:20:59;;;;;;;8.87;6.60;;;22.20;52.40;;;;;;5042180;28;20473;-87
2021/09/14 01:23:27;;;;;;;18.00;7.63;;;22.30;51.80;;;;;;5041297;28;20491;-87
2021/09/14 01:25:54;;;;;;;17.40;10.90;;;22.20;51.80;;;;;;5040892;28;20481;-87
2021/09/14 01:28:21;;;;;;;14.43;8.33;;;22.20;51.10;;;;;;5042309;28;20433;-87
2021/09/14 01:30:48;;;;;;;14.30;6.70;;;22.00;50.70;;;;;;5039795;28;20488;-87
2021/09/14 01:33:15;;;;;;;8.43;6.37;;;21.40;51.40;;;;;;5037733;28;20461;-86
2021/09/14 01:35:43;;;;;;;12.67;7.10;;;21.20;51.90;;;;;;5041494;28;20850;-86
2021/09/14 01:38:11;;;;;;;17.00;9.53;;;21.20;52.80;;;;;;5043053;28;20569;-86
2021/09/14 01:40:40;;;;;;;9.47;7.67;;;21.30;52.80;;;;;;5041781;28;20771;-87
2021/09/14 01:43:07;;;;;;;9.83;6.73;;;21.20;52.70;;;;;;5039300;28;20464;-87
2021/09/14 01:45:35;;;;;;;8.40;6.40;;;21.00;52.90;;;;;;5040666;28;20535;-86
2021/09/14 01:48:02;;;;;;;7.97;6.13;;;21.30;53.80;;;;;;5042510;28;20484;-86
2021/09/14 01:50:29;;;;;;;11.13;5.40;;;21.40;53.20;;;;;;5042050;28;20433;-87
2021/09/14 01:52:56;;;;;;;9.90;6.37;;;21.60;53.10;;;;;;5041944;28;20448;-86
2021/09/14 01:55:23;;;;;;;11.90;7.13;;;21.80;52.80;;;;;;5043757;28;20528;-86
2021/09/14 01:57:53;;;;;;;12.10;6.97;;;21.90;52.60;;;;;;5045237;28;20520;-87
2021/09/14 02:00:23;;;;;;;20.13;6.90;;;21.90;51.90;;;;;;5045370;28;20445;-86
2021/09/14 03:00:59;;;;;;;8.80;7.40;;;19.70;55.50;;;;;;5136792;28;20936;-86
2021/09/14 03:03:26;;;;;;;12.53;7.73;;;19.80;56.20;;;;;;5137517;27;20492;-87
2021/09/14 03:05:53;;;;;;;16.00;7.87;;;19.80;56.20;;;;;;5136798;27;20512;-87
2021/09/14 03:08:20;;;;;;;15.20;8.03;;;19.80;56.70;;;;;;5135385;27;20543;-87
2021/09/14 03:10:46;;;;;;;17.53;9.73;;;19.80;56.70;;;;;;5134516;27;20429;-87
2021/09/14 03:13:15;;;;;;;13.50;8.03;;;19.90;55.90;;;;;;5134692;27;20480;-86
2021/09/14 03:15:42;;;;;;;9.60;6.03;;;20.00;55.10;;;;;;5135363;27;20461;-87
2021/09/14 03:18:09;;;;;;;16.93;8.03;;;20.20;56.50;;;;;;5132489;27;20454;-87
2021/09/14 03:20:36;;;;;;;23.27;8.97;;;20.50;54.30;;;;;;5122057;27;20445;-87
2021/09/14 03:23:03;;;;;;;15.63;8.00;;;20.50;54.40;;;;;;5121481;27;20457;-87
2021/09/14 03:25:31;;;;;;;12.80;8.50;;;20.20;55.00;;;;;;5120782;28;20974;-86
2021/09/14 03:27:57;;;;;;;9.83;6.37;;;20.20;55.60;;;;;;5121747;28;20522;-87
2021/09/14 03:30:26;;;;;;;13.17;8.37;;;20.20;56.30;;;;;;5121477;28;20518;-87
2021/09/14 03:32:53;;;;;;;17.50;5.97;;;20.40;55.90;;;;;;5121462;28;20472;-87
2021/09/14 03:35:20;;;;;;;11.13;7.93;;;20.70;55.80;;;;;;5121554;28;20541;-87
2021/09/14 03:37:47;;;;;;;11.80;6.27;;;21.10;54.70;;;;;;5121838;28;20493;-87
2021/09/14 03:40:14;;;;;;;10.73;7.20;;;21.00;53.70;;;;;;5121984;28;20488;-87
2021/09/14 03:42:41;;;;;;;11.10;6.83;;;20.90;53.60;;;;;;5121630;28;20448;-87
2021/09/14 03:45:09;;;;;;;17.60;7.80;;;20.80;54.00;;;;;;5121270;28;20454;-87
2021/09/14 03:47:37;;;;;;;22.93;8.87;;;20.90;53.80;;;;;;5133289;28;20530;-87
2021/09/14 03:50:05;;;;;;;10.73;6.43;;;20.90;53.20;;;;;;5133331;28;20442;-87
2021/09/14 03:52:32;;;;;;;7.20;6.27;;;21.10;54.30;;;;;;5125168;28;20546;-87
2021/09/14 03:54:58;;;;;;;15.03;7.13;;;21.10;53.80;;;;;;5120038;28;20679;-87
2021/09/14 03:57:25;;;;;;;14.63;8.13;;;21.00;53.30;;;;;;5120366;28;20442;-87
2021/09/14 03:59:52;;;;;;;10.43;7.40;;;21.00;53.10;;;;;;5121013;28;20633;-87
2021/09/14 04:02:29;;;;;;;10.27;6.93;;;21.00;53.50;;;;;;5120682;28;20487;-87
2021/09/14 04:05:08;;;;;;;10.80;7.50;;;20.80;53.80;;;;;;5120333;28;20506;-87
2021/09/14 04:07:49;;;;;;;24.77;8.30;;;20.90;53.80;;;;;;5120603;28;20495;-87
2021/09/14 04:10:16;;;;;;;11.20;6.93;;;20.60;54.30;;;;;;5120209;28;20438;-87
2021/09/14 04:12:43;;;;;;;14.63;8.47;;;20.70;54.30;;;;;;5119966;28;20446;-87
2021/09/14 04:15:10;;;;;;;9.20;7.53;;;20.60;53.40;;;;;;5119932;28;20504;-87
2021/09/14 04:17:37;;;;;;;15.20;6.53;;;20.60;54.20;;;;;;5119610;28;20456;-87
2021/09/14 04:20:07;;;;;;;12.33;8.90;;;20.70;54.80;;;;;;5121812;28;20480;-87
2021/09/14 04:22:34;;;;;;;10.37;7.83;;;20.70;53.70;;;;;;5120684;28;20470;-87
2021/09/14 04:25:00;;;;;;;9.77;6.70;;;20.60;54.30;;;;;;5119623;28;20586;-87
2021/09/14 04:27:27;;;;;;;10.10;6.20;;;20.80;54.10;;;;;;5118972;28;20516;-87
2021/09/14 04:29:54;;;;;;;11.63;8.20;;;20.80;54.80;;;;;;5119226;28;20494;-87
2021/09/14 04:32:21;;;;;;;7.97;6.13;;;21.10;53.90;;;;;;5119417;28;20440;-87
2021/09/14 04:34:48;;;;;;;15.00;8.50;;;21.10;53.30;;;;;;5119197;28;20527;-86
2021/09/14 04:37:16;;;;;;;12.30;7.93;;;20.90;53.00;;;;;;5120369;28;20827;-87
2021/09/14 04:39:43;;;;;;;12.73;6.73;;;20.90;53.30;;;;;;5120514;28;20473;-87
2021/09/14 04:42:10;;;;;;;11.97;7.23;;;20.80;54.10;;;;;;5128431;28;20453;-87
2021/09/14 04:44:37;;;;;;;26.07;7.27;;;21.00;53.90;;;;;;5121922;27;20469;-87
2021/09/14 04:47:05;;;;;;;7.57;6.17;;;20.90;54.30;;;;;;5117179;28;20508;-87
2021/09/14 04:49:31;;;;;;;8.37;6.27;;;21.10;53.60;;;;;;5115987;28;20573;-87
2021/09/14 04:51:58;;;;;;;17.57;7.40;;;21.20;53.10;;;;;;5115912;28;20876;-87
2021/09/14 04:54:27;;;;;;;8.10;6.13;;;20.90;52.00;;;;;;5115776;28;20926;-87
2021/09/14 04:56:54;;;;;;;16.80;8.83;;;20.90;53.70;;;;;;5115604;28;20931;-87
2021/09/14 04:59:20;;;;;;;8.37;5.23;;;21.10;51.80;;;;;;5116497;28;20441;-87
2021/09/14 05:01:47;;;;;;;8.10;6.50;;;21.20;54.10;;;;;;5116006;28;20446;-87
2021/09/14 05:04:14;;;;;;;6.70;5.80;;;21.40;53.10;;;;;;5116068;28;20556;-87
2021/09/14 05:06:41;;;;;;;24.13;6.23;;;21.40;52.90;;;;;;5116389;28;20492;-88
2021/09/14 05:09:08;;;;;;;13.53;7.37;;;20.90;53.00;;;;;;5117031;28;20478;-88
2021/09/14 05:11:36;;;;;;;7.50;5.97;;;21.10;53.80;;;;;;5117942;28;20468;-88
2021/09/14 05:14:03;;;;;;;9.53;6.93;;;21.30;53.30;;;;;;5119868;28;20449;-88
2021/09/14 05:16:30;;;;;;;9.83;6.07;;;21.20;52.30;;;;;;5119661;28;20426;-88
2021/09/14 05:18:58;;;;;;;7.50;5.70;;;21.10;52.80;;;;;;5119833;28;20445;-88
2021/09/14 05:21:25;;;;;;;10.03;6.87;;;21.00;53.00;;;;;;5118864;28;20448;-88
2021/09/14 05:23:52;;;;;;;8.67;6.67;;;20.80;52.40;;;;;;5118344;28;20469;-88
2021/09/14 05:26:22;;;;;;;13.07;7.57;;;20.80;53.00;;;;;;5118641;28;20479;-87
2021/09/14 05:28:50;;;;;;;14.10;7.20;;;20.50;52.50;;;;;;5118751;28;20465;-88
2021/09/14 05:31:17;;;;;;;8.40;6.60;;;20.40;53.60;;;;;;5118786;28;20422;-87
2021/09/14 05:33:45;;;;;;;11.20;7.87;;;20.70;54.50;;;;;;5118496;28;20507;-88
2021/09/14 05:36:13;;;;;;;11.83;7.73;;;21.10;52.70;;;;;;5128030;28;20450;-88
2021/09/14 05:38:42;;;;;;;10.63;7.23;;;21.70;52.70;;;;;;5138064;28;20438;-87
2021/09/14 05:41:09;;;;;;;15.13;8.93;;;22.00;51.00;;;;;;5137939;28;20426;-86
2021/09/14 05:43:36;;;;;;;11.60;6.67;;;22.60;51.40;;;;;;5122793;28;20513;-88
2021/09/14 05:46:04;;;;;;;17.10;7.00;;;23.10;49.10;;;;;;5125606;28;20457;-87
2021/09/14 05:48:31;;;;;;;11.87;7.30;;;23.20;48.10;;;;;;5137339;28;20512;-87
2021/09/14 05:50:58;;;;;;;9.73;7.00;;;23.40;48.40;;;;;;5136469;28;20445;-87
2021/09/14 05:53:25;;;;;;;15.03;7.67;;;23.90;46.80;;;;;;5136102;28;20464;-87
2021/09/14 05:55:52;;;;;;;10.70;6.07;;;24.40;45.40;;;;;;5123895;28;20468;-87
2021/09/14 05:58:19;;;;;;;9.67;5.70;;;24.20;46.30;;;;;;5120246;28;20477;-87
2021/09/14 06:00:46;;;;;;;8.90;5.63;;;24.80;44.50;;;;;;5119092;28;20437;-88
2021/09/14 06:03:15;;;;;;;12.00;7.13;;;25.20;43.50;;;;;;5119799;28;20491;-88
2021/09/14 06:05:42;;;;;;;9.10;6.27;;;25.30;42.20;;;;;;5118595;28;20523;-87
2021/09/14 06:08:09;;;;;;;7.20;5.77;;;25.20;42.00;;;;;;5118534;28;20477;-87
2021/09/14 06:10:36;;;;;;;8.70;6.37;;;24.60;45.20;;;;;;5118883;28;20446;-88
2021/09/14 06:13:06;;;;;;;6.50;5.60;;;25.00;43.80;;;;;;5134402;28;20449;-87
2021/09/14 06:15:33;;;;;;;16.23;6.40;;;25.50;43.60;;;;;;5127612;28;20461;-88
2021/09/14 06:17:59;;;;;;;7.40;6.20;;;26.20;42.60;;;;;;5117737;28;20429;-88
2021/09/14 06:20:28;;;;;;;17.57;7.43;;;26.70;39.70;;;;;;5117517;28;20446;-87
2021/09/14 06:22:55;;;;;;;8.43;6.13;;;26.70;40.50;;;;;;5118911;28;20445;-88
2021/09/14 06:25:22;;;;;;;10.03;6.40;;;27.00;39.40;;;;;;5117974;28;20499;-88
2021/09/14 06:27:49;;;;;;;13.57;6.90;;;27.10;39.40;;;;;;5117056;28;20469;-89
2021/09/14 06:30:16;;;;;;;9.27;6.27;;;27.40;38.50;;;;;;5117341;28;20524;-88
2021/09/14 06:32:43;;;;;;;10.30;5.93;;;28.20;38.30;;;;;;5114787;28;20478;-88
2021/09/14 06:35:10;;;;;;;10.40;5.90;;;28.60;36.80;;;;;;5113955;28;20490;-88
2021/09/14 06:37:39;;;;;;;5.73;5.17;;;29.30;34.50;;;;;;5114407;28;20467;-88
2021/09/14 06:40:07;;;;;;;9.13;5.97;;;29.70;33.90;;;;;;5114814;28;20931;-88
2021/09/14 06:42:33;;;;;;;10.20;6.20;;;29.40;34.60;;;;;;5114493;28;20469;-87
2021/09/14 06:45:01;;;;;;;10.20;6.10;;;29.10;36.00;;;;;;5114923;28;20474;-88
2021/09/14 06:47:28;;;;;;;10.70;6.23;;;29.40;35.20;;;;;;5116058;28;20438;-88
2021/09/14 06:49:55;;;;;;;23.20;5.50;;;29.80;34.40;;;;;;5117643;28;20516;-85
2021/09/14 06:52:22;;;;;;;7.43;6.13;;;30.10;33.80;;;;;;5119960;28;20437;-88
2021/09/14 06:54:50;;;;;;;9.90;5.67;;;29.80;33.60;;;;;;5122392;28;20466;-88
2021/09/14 06:57:19;;;;;;;10.80;6.20;;;29.50;34.00;;;;;;5121374;27;20453;-87
2021/09/14 06:59:46;;;;;;;6.83;5.13;;;29.40;34.60;;;;;;5122174;27;20453;-87
2021/09/14 07:02:14;;;;;;;7.40;4.90;;;29.50;34.90;;;;;;5122359;28;20803;-87
2021/09/14 07:04:41;;;;;;;6.70;5.73;;;29.50;35.00;;;;;;5120485;28;20965;-87
2021/09/14 07:07:08;;;;;;;11.67;6.30;;;29.50;34.80;;;;;;5121275;28;20453;-87
2021/09/14 07:09:36;;;;;;;11.50;6.53;;;29.70;34.40;;;;;;5128459;28;20473;-86
2021/09/14 07:12:06;;;;;;;9.33;5.53;;;29.60;35.80;;;;;;5128667;28;20483;-86
2021/09/14 07:14:33;;;;;;;9.17;5.70;;;29.60;34.40;;;;;;5128926;28;20897;-87
2021/09/14 07:16:59;;;;;;;8.40;5.93;;;29.90;34.20;;;;;;5132190;28;20450;-87
2021/09/14 07:19:26;;;;;;;8.13;6.03;;;30.10;33.20;;;;;;5137952;28;20722;-86
2021/09/14 07:21:53;;;;;;;8.27;6.20;;;29.80;33.50;;;;;;5138539;28;20840;-86
2021/09/14 07:24:20;;;;;;;12.33;5.57;;;30.00;33.90;;;;;;5139192;28;20510;-86
2021/09/14 07:26:47;;;;;;;7.33;5.47;;;29.90;33.80;;;;;;5134461;28;20430;-86
2021/09/14 07:29:15;;;;;;;11.07;6.17;;;30.00;33.70;;;;;;5133905;28;20481;-86
2021/09/14 07:31:44;;;;;;;10.63;6.77;;;29.90;33.60;;;;;;5136896;28;20446;-86
2021/09/14 07:34:11;;;;;;;9.90;5.80;;;29.60;34.50;;;;;;5136159;28;20438;-86
2021/09/14 07:36:38;;;;;;;10.07;5.57;;;29.30;34.60;;;;;;5132499;28;20492;-86
2021/09/14 07:39:05;;;;;;;12.43;5.60;;;29.40;34.90;;;;;;5132436;28;20437;-86
2021/09/14 07:41:32;;;;;;;8.17;5.77;;;30.10;34.40;;;;;;5131099;28;20430;-86
2021/09/14 07:43:59;;;;;;;6.00;5.03;;;30.50;32.50;;;;;;5129807;28;20915;-87
2021/09/14 07:46:28;;;;;;;9.03;6.00;;;30.90;32.40;;;;;;5127311;28;20472;-87
2021/09/14 07:48:54;;;;;;;7.47;5.33;;;32.00;30.80;;;;;;5127307;28;20477;-87
2021/09/14 07:51:22;;;;;;;8.90;5.73;;;31.70;30.10;;;;;;5129152;28;20444;-88
2021/09/14 07:53:52;;;;;;;9.47;5.73;;;32.00;30.20;;;;;;5130425;28;20437;-87
2021/09/14 07:56:19;;;;;;;5.53;4.53;;;31.80;30.30;;;;;;5124848;27;20507;-87
2021/09/14 07:58:46;;;;;;;12.90;6.30;;;32.20;30.70;;;;;;5129633;28;20471;-86
2021/09/14 08:01:13;;;;;;;12.87;6.57;;;32.40;29.90;;;;;;5134157;28;20426;-87
2021/09/14 08:03:41;;;;;;;7.50;5.03;;;32.00;30.20;;;;;;5136839;28;20419;-86
2021/09/14 08:06:08;;;;;;;9.93;5.87;;;32.00;30.00;;;;;;5134960;28;20494;-86
2021/09/14 08:08:35;;;;;;;14.33;6.40;;;32.20;29.60;;;;;;5139818;28;20481;-85
2021/09/14 08:11:01;;;;;;;10.53;5.77;;;31.80;29.70;;;;;;5132103;28;20564;-86
2021/09/14 08:13:28;;;;;;;10.07;6.10;;;30.90;30.80;;;;;;5130233;28;20442;-86
2021/09/14 08:15:55;;;;;;;12.10;5.43;;;30.70;31.10;;;;;;5138085;28;20457;-82
2021/09/14 08:18:22;;;;;;;10.43;5.40;;;30.90;31.70;;;;;;5138770;27;20453;-85
2021/09/14 08:20:50;;;;;;;12.40;5.10;;;31.30;31.00;;;;;;5139437;28;20453;-86
2021/09/14 08:23:17;;;;;;;6.63;5.23;;;31.70;30.50;;;;;;5139535;27;20438;-86
2021/09/14 08:25:44;;;;;;;10.03;5.63;;;32.10;29.80;;;;;;5137732;28;20461;-86
2021/09/14 08:28:11;;;;;;;10.07;5.33;;;31.00;30.80;;;;;;5132096;28;20441;-87
2021/09/14 08:30:38;;;;;;;13.80;5.40;;;31.10;30.90;;;;;;5132553;28;20411;-87
2021/09/14 08:33:05;;;;;;;7.30;5.90;;;31.00;30.80;;;;;;5129554;28;20449;-86
2021/09/14 08:35:33;;;;;;;7.27;5.20;;;31.20;31.00;;;;;;5130400;27;20461;-87
2021/09/14 08:38:02;;;;;;;8.70;5.17;;;31.50;31.20;;;;;;5129011;28;20446;-86
2021/09/14 08:40:29;;;;;;;7.00;5.00;;;31.80;30.20;;;;;;5128753;28;20448;-86
2021/09/14 08:42:58;;;;;;;7.60;4.90;;;31.50;31.20;;;;;;5128867;27;20545;-87
2021/09/14 08:45:26;;;;;;;7.43;5.47;;;31.90;30.60;;;;;;5129730;28;20473;-87
2021/09/14 08:47:54;;;;;;;7.03;5.40;;;31.60;29.90;;;;;;5131761;28;20449;-85
2021/09/14 08:50:23;;;;;;;13.33;5.53;;;30.90;30.90;;;;;;5134002;28;20469;-86
2021/09/14 08:52:50;;;;;;;10.83;5.30;;;30.40;32.20;;;;;;5134065;28;20482;-86
2021/09/14 08:55:21;;;;;;;10.20;5.37;;;30.30;32.20;;;;;;5132063;28;20457;-86
2021/09/14 08:57:51;;;;;;;6.90;5.17;;;30.00;32.80;;;;;;5133762;28;20543;-86
2021/09/14 09:00:29;;;;;;;14.63;5.00;;;29.70;33.90;;;;;;5133727;28;20513;-86
2021/09/14 09:02:56;;;;;;;8.10;5.47;;;29.30;34.50;;;;;;5131177;28;20436;-86
2021/09/14 09:05:31;;;;;;;18.43;7.83;;;29.50;34.60;;;;;;5133305;28;20450;-87
2021/09/14 09:07:58;;;;;;;14.70;5.90;;;29.30;35.40;;;;;;5133959;28;20440;-86
2021/09/14 09:10:26;;;;;;;17.43;5.47;;;29.40;35.00;;;;;;5130644;27;20469;-86
2021/09/14 09:12:53;;;;;;;13.57;5.47;;;29.60;34.40;;;;;;5132986;28;20425;-86
2021/09/14 09:15:26;;;;;;;10.23;5.50;;;29.30;35.30;;;;;;5132555;28;20521;-86
2021/09/14 09:18:04;;;;;;;12.70;5.07;;;29.30;35.80;;;;;;5132494;28;20434;-86
2021/09/14 09:20:31;;;;;;;9.33;5.27;;;29.30;36.10;;;;;;5130682;28;20466;-87
2021/09/14 09:23:00;;;;;;;9.57;5.10;;;29.30;35.80;;;;;;5130141;28;20468;-87
2021/09/14 09:25:29;;;;;;;8.80;5.53;;;29.10;36.00;;;;;;5127979;28;20450;-87
2021/09/14 09:28:07;;;;;;;14.40;6.27;;;29.40;35.50;;;;;;5128997;28;20446;-87
2021/09/14 09:30:36;;;;;;;11.17;5.47;;;29.40;35.30;;;;;;5129476;28;20477;-87
2021/09/14 09:33:04;;;;;;;5.67;4.90;;;29.60;35.40;;;;;;5127853;28;20445;-86
2021/09/14 09:35:32;;;;;;;8.33;4.50;;;29.10;36.10;;;;;;5130029;28;20483;-87
2021/09/14 09:38:01;;;;;;;11.20;5.50;;;29.30;36.10;;;;;;5129616;28;20463;-87
2021/09/14 09:40:31;;;;;;;9.93;6.67;;;29.50;36.10;;;;;;5126538;28;20437;-87
2021/09/14 09:43:00;;;;;;;6.10;4.93;;;29.80;35.20;;;;;;5128036;28;20487;-87
2021/09/14 09:45:27;;;;;;;20.93;5.90;;;30.10;34.40;;;;;;5130797;28;20487;-87
2021/09/14 09:47:54;;;;;;;11.27;5.40;;;30.00;34.70;;;;;;5129283;28;20441;-87
2021/09/14 09:50:22;;;;;;;15.70;5.33;;;29.60;36.10;;;;;;5129840;28;20545;-86
2021/09/14 09:52:49;;;;;;;7.97;5.37;;;29.90;35.20;;;;;;5128745;28;20453;-87
2021/09/14 09:55:16;;;;;;;7.00;5.50;;;29.40;35.70;;;;;;5128076;28;20469;-86
2021/09/14 09:57:45;;;;;;;8.90;5.67;;;29.10;36.50;;;;;;5128724;28;20484;-87
2021/09/14 10:00:13;;;;;;;6.13;4.90;;;29.30;35.90;;;;;;5129258;28;20482;-86
2021/09/14 10:02:45;;;;;;;6.70;4.90;;;29.40;36.10;;;;;;5129891;28;20433;-87
2021/09/14 10:05:14;;;;;;;11.17;5.07;;;29.40;36.50;;;;;;5128363;28;20473;-87
2021/09/14 10:07:44;;;;;;;10.43;4.60;;;29.60;37.50;;;;;;5126976;28;20453;-87
2021/09/14 10:10:12;;;;;;;11.07;5.50;;;29.80;35.80;;;;;;5128424;28;20497;-87
2021/09/14 10:12:39;;;;;;;10.83;5.40;;;29.80;35.10;;;;;;5120748;28;20491;-87
2021/09/14 10:15:09;;;;;;;9.27;4.80;;;30.00;35.60;;;;;;5118744;28;20873;-87
2021/09/14 10:17:50;;;;;;;10.03;5.23;;;30.30;34.90;;;;;;5134174;28;20425;-86
2021/09/14 10:20:19;;;;;;;8.50;5.20;;;30.70;34.40;;;;;;5119476;28;20454;-87
2021/09/14 10:23:00;;;;;;;10.63;5.30;;;30.80;33.60;;;;;;5124273;28;20438;-87
2021/09/14 10:25:27;;;;;;;12.57;8.33;;;30.50;34.20;;;;;;5132640;28;20487;-87
2021/09/14 10:28:05;;;;;;;6.80;4.80;;;30.80;34.10;;;;;;5128152;28;20445;-87
2021/09/14 10:30:35;;;;;;;7.80;4.73;;;30.90;34.00;;;;;;5129018;28;20860;-87
2021/09/14 10:33:02;;;;;;;5.77;4.00;;;31.00;33.40;;;;;;5129491;28;20448;-87
2021/09/14 10:35:31;;;;;;;7.27;4.70;;;31.00;32.90;;;;;;5124220;28;20899;-87
2021/09/14 10:38:06;;;;;;;5.47;4.40;;;31.40;32.80;;;;;;5124585;28;20465;-87
2021/09/14 10:40:39;;;;;;;5.30;4.30;;;31.50;33.00;;;;;;5125668;28;20807;-87
2021/09/14 10:43:06;;;;;;;5.63;4.63;;;31.50;32.10;;;;;;5125086;28;20422;-88
2021/09/14 10:45:43;;;;;;;15.70;4.00;;;31.60;32.30;;;;;;5125627;28;20465;-87
2021/09/14 10:48:22;;;;;;;6.30;4.40;;;31.50;32.00;;;;;;5141374;28;20442;-86
2021/09/14 10:50:49;;;;;;;6.40;4.80;;;31.60;32.40;;;;;;5141396;28;20480;-86
2021/09/14 10:53:24;;;;;;;4.57;3.90;;;31.70;32.50;;;;;;5134787;28;20433;-87
2021/09/14 10:55:55;;;;;;;12.40;4.77;;;31.70;32.00;;;;;;5124534;28;20520;-88
2021/09/14 10:58:22;;;;;;;7.30;4.90;;;31.80;32.30;;;;;;5141459;28;20482;-87
2021/09/14 11:00:51;;;;;;;11.97;5.00;;;31.70;32.00;;;;;;5141465;28;20426;-86
2021/09/14 11:03:19;;;;;;;8.47;4.77;;;31.70;31.30;;;;;;5141578;28;20437;-86
2021/09/14 11:05:55;;;;;;;8.10;5.47;;;31.90;31.70;;;;;;5132042;28;20530;-87
2021/09/14 11:08:26;;;;;;;6.27;4.37;;;31.90;32.00;;;;;;5121163;28;20461;-88
2021/09/14 11:10:59;;;;;;;7.03;4.00;;;31.90;31.50;;;;;;5120017;28;20530;-87
2021/09/14 11:13:28;;;;;;;7.77;4.80;;;32.00;31.50;;;;;;5120942;28;20464;-88
2021/09/14 11:16:02;;;;;;;5.27;4.13;;;31.90;31.60;;;;;;5119519;28;20472;-88
2021/09/14 11:18:30;;;;;;;6.77;4.10;;;31.80;31.40;;;;;;5120315;28;20472;-88
2021/09/14 11:21:04;;;;;;;7.63;5.27;;;31.70;31.70;;;;;;5119792;28;20517;-88
2021/09/14 11:23:31;;;;;;;6.20;3.90;;;32.00;32.00;;;;;;5120203;28;20467;-87
2021/09/14 11:25:58;;;;;;;7.07;4.77;;;31.80;31.70;;;;;;5119240;28;20517;-88
2021/09/14 11:28:25;;;;;;;7.63;4.50;;;31.90;31.50;;;;;;5119611;28;20433;-87
2021/09/14 11:30:55;;;;;;;7.37;5.03;;;31.60;31.90;;;;;;5118614;28;20477;-87
2021/09/14 11:33:25;;;;;;;8.67;4.83;;;31.50;31.90;;;;;;5121023;28;20878;-87
2021/09/14 11:35:52;;;;;;;6.47;4.27;;;31.20;32.30;;;;;;5123700;28;20458;-89
2021/09/14 11:38:20;;;;;;;7.00;4.40;;;30.90;32.80;;;;;;5121322;28;20450;-87
2021/09/14 11:40:49;;;;;;;8.80;4.17;;;30.70;33.00;;;;;;5120154;28;20502;-88
2021/09/14 11:43:21;;;;;;;6.70;4.23;;;31.20;32.60;;;;;;5124700;28;20468;-87
2021/09/14 11:45:49;;;;;;;6.97;4.10;;;31.50;31.30;;;;;;5125254;28;20510;-87
2021/09/14 11:48:21;;;;;;;9.67;6.20;;;31.70;31.30;;;;;;5124569;28;20433;-87
2021/09/14 11:51:01;;;;;;;7.13;4.17;;;31.90;31.30;;;;;;5123787;28;20867;-87
2021/09/14 11:53:28;;;;;;;6.47;4.00;;;31.70;31.30;;;;;;5125559;28;20785;-87
2021/09/14 11:55:55;;;;;;;4.70;3.90;;;31.70;29.70;;;;;;5125727;28;20500;-87
2021/09/14 11:58:29;;;;;;;5.67;3.83;;;31.60;29.70;;;;;;5135626;28;20445;-86
2021/09/14 12:01:00;;;;;;;5.10;4.00;;;31.40;29.80;;;;;;5130094;28;20764;-87
2021/09/14 12:03:35;;;;;;;7.10;3.83;;;31.30;30.40;;;;;;5128009;28;20425;-86
2021/09/14 12:06:05;;;;;;;10.70;4.50;;;31.40;31.10;;;;;;5128992;28;20461;-87
2021/09/14 12:08:33;;;;;;;6.47;4.10;;;31.50;31.10;;;;;;5132606;28;20460;-87
2021/09/14 12:11:00;;;;;;;12.63;4.03;;;31.60;31.20;;;;;;5134128;28;20481;-86
2021/09/14 12:13:35;;;;;;;5.00;4.10;;;31.70;30.10;;;;;;5131954;28;20444;-86
2021/09/14 12:16:08;;;;;;;5.63;3.50;;;32.00;30.10;;;;;;5129087;28;20453;-87
2021/09/14 12:18:37;;;;;;;11.50;4.83;;;32.30;29.90;;;;;;5127082;28;20911;-87
2021/09/14 12:21:05;;;;;;;5.50;4.03;;;32.60;29.50;;;;;;5127447;28;20468;-87
2021/09/14 12:23:32;;;;;;;5.80;4.20;;;32.70;29.20;;;;;;5127134;28;20442;-87
2021/09/14 12:26:00;;;;;;;7.67;4.17;;;32.70;29.50;;;;;;5121993;28;20477;-88
2021/09/14 12:28:27;;;;;;;7.67;4.57;;;33.00;28.20;;;;;;5122513;28;20447;-87
2021/09/14 12:30:54;;;;;;;4.30;3.97;;;32.70;28.10;;;;;;5122790;28;20486;-87
2021/09/14 12:33:21;;;;;;;4.70;3.80;;;32.50;29.30;;;;;;5120790;28;20927;-87
2021/09/14 12:35:48;;;;;;;5.40;4.00;;;33.00;29.00;;;;;;5122496;28;20495;-88
2021/09/14 12:38:17;;;;;;;6.87;3.80;;;33.10;29.00;;;;;;5124769;27;20533;-87
2021/09/14 12:40:44;;;;;;;8.57;4.27;;;33.20;29.00;;;;;;5120639;28;20445;-87
2021/09/14 12:43:11;;;;;;;9.00;4.20;;;33.40;28.60;;;;;;5119950;27;20445;-87
2021/09/14 12:45:38;;;;;;;13.33;4.67;;;33.50;28.20;;;;;;5118531;28;20903;-88
2021/09/14 12:48:05;;;;;;;8.37;4.30;;;33.60;28.20;;;;;;5120642;28;20494;-88
2021/09/14 12:50:32;;;;;;;6.23;4.20;;;33.60;27.60;;;;;;5119746;28;20816;-87
2021/09/14 12:52:59;;;;;;;8.57;4.23;;;33.80;27.50;;;;;;5125523;28;20437;-87
2021/09/14 12:55:28;;;;;;;6.00;4.10;;;33.90;27.70;;;;;;5129983;28;20468;-87
2021/09/14 12:57:55;;;;;;;11.50;4.77;;;34.00;27.70;;;;;;5131956;28;20509;-87
2021/09/14 13:00:22;;;;;;;6.50;4.13;;;34.00;27.70;;;;;;5127910;28;20448;-87
2021/09/14 13:02:49;;;;;;;4.87;3.90;;;33.90;26.80;;;;;;5127617;28;20469;-87
2021/09/14 13:05:16;;;;;;;32.07;4.60;;;33.70;27.50;;;;;;5126036;28;20442;-87
2021/09/14 13:07:43;;;;;;;7.20;4.73;;;33.50;27.60;;;;;;5126247;28;20482;-86
2021/09/14 13:10:13;;;;;;;4.40;4.00;;;33.20;28.10;;;;;;5132697;28;20465;-87
2021/09/14 13:12:46;;;;;;;5.37;4.30;;;33.20;28.00;;;;;;5128974;28;20442;-86
2021/09/14 13:17:58;;;;;;;9.40;4.50;;;32.60;28.60;;;;;;5134350;28;20393;-86
2021/09/14 13:20:26;;;;;;;7.50;4.30;;;32.60;28.60;;;;;;5132748;28;20473;-87
2021/09/14 13:22:53;;;;;;;7.70;4.47;;;32.80;28.70;;;;;;5133693;28;20442;-86
2021/09/14 13:25:21;;;;;;;5.87;4.43;;;32.70;28.80;;;;;;5131607;28;20469;-87
2021/09/14 13:27:50;;;;;;;9.63;4.00;;;32.60;28.60;;;;;;5130452;28;20511;-87
2021/09/14 13:30:17;;;;;;;9.27;4.63;;;32.40;28.80;;;;;;5129031;28;20473;-87
2021/09/14 13:32:44;;;;;;;12.17;5.30;;;32.50;29.00;;;;;;5133666;28;20445;-86
2021/09/14 13:35:12;;;;;;;8.73;4.13;;;32.60;28.70;;;;;;5127590;28;20472;-86
2021/09/14 13:37:39;;;;;;;10.10;4.30;;;32.40;28.60;;;;;;5127545;28;20555;-86
2021/09/14 13:40:07;;;;;;;8.40;4.30;;;32.50;29.30;;;;;;5125257;28;20445;-87
2021/09/14 13:42:33;;;;;;;12.33;4.97;;;32.60;28.80;;;;;;5125171;28;20429;-86
2021/09/14 13:47:46;;;;;;;6.07;4.17;;;32.20;29.20;;;;;;5121740;28;20530;-86
2021/09/14 13:50:13;;;;;;;7.23;4.30;;;32.10;29.20;;;;;;5121779;28;20493;-87
2021/09/14 13:52:40;;;;;;;11.83;4.60;;;32.30;29.20;;;;;;5124284;28;20509;-86